Time,TemperatureF,DewpointF,PressureIn,WindDirection,WindDirectionDegrees,WindSpeedMPH,WindSpeedGustMPH,Humidity,HourlyPrecipIn,Conditions,Clouds,dailyrainin,SoftwareType,DateUTC
2013-08-31 00:01:00,66.7,66.7,26.78,ESE,112,0.0,0.0,100,0.00,,,-99.99,VWS V12.07,2013-08-31 04:01:00,
2013-08-31 00:31:00,67.3,67.3,26.78,WSW,238,0.0,0.0,100,0.00,,,-99.99,VWS V12.07,2013-08-31 04:31:00,
2013-08-31 01:01:00,67.1,67.1,26.77,SE,124,2.0,4.0,100,0.00,,,-99.99,VWS V12.07,2013-08-31 05:01:00,
2013-08-31 01:31:00,67.0,67.0,26.77,SE,136,0.0,4.0,100,0.00,,,-99.99,VWS V12.07,2013-08-31 05:31:00,
2013-08-31 02:01:00,66.8,66.8,26.77,SSE,165,2.0,6.0,100,0.00,,,-99.99,VWS V12.07,2013-08-31 06:01:00,
2013-08-31 02:31:00,67.1,67.1,26.76,SSE,165,0.0,4.0,100,0.00,,,-99.99,VWS V12.07,2013-08-31 06:31:00,
2013-08-31 03:01:00,67.3,67.3,26.77,SSE,166,1.0,2.0,100,0.00,,,-99.99,VWS V12.07,2013-08-31 07:01:00,
2013-08-31 03:31:00,67.1,67.1,26.76,SSE,166,1.0,5.0,100,0.00,,,-99.99,VWS V12.07,2013-08-31 07:31:00,
2013-08-31 04:01:00,67.3,67.3,26.76,South,175,0.0,7.0,100,0.00,,,-99.99,VWS V12.07,2013-08-31 08:01:00,
2013-08-31 04:31:00,67.0,67.0,26.76,South,175,0.0,0.0,100,0.00,,,-99.99,VWS V12.07,2013-08-31 08:31:00,
2013-08-31 05:04:00,66.3,66.3,26.76,South,175,0.0,2.0,100,0.00,,,-99.99,VWS V12.07,2013-08-31 09:04:00,
2013-08-31 05:31:00,65.7,65.7,26.76,South,175,0.0,3.0,100,0.00,,,-99.99,VWS V12.07,2013-08-31 09:31:00,
2013-08-31 06:01:00,65.7,65.7,26.76,South,175,0.0,0.0,100,0.00,,,-99.99,VWS V12.07,2013-08-31 10:01:00,
2013-08-31 06:31:00,65.2,65.2,26.76,South,175,0.0,0.0,100,0.00,,,-99.99,VWS V12.07,2013-08-31 10:31:00,
2013-08-31 07:01:00,65.5,65.5,26.76,South,175,0.0,0.0,100,0.00,,,-99.99,VWS V12.07,2013-08-31 11:01:00,
2013-08-31 07:31:00,67.7,67.7,26.77,South,175,1.0,2.0,100,0.00,,,-99.99,VWS V12.07,2013-08-31 11:31:00,
2013-08-31 08:02:00,69.8,69.8,26.77,SSE,150,3.0,7.0,100,0.00,,,-99.99,VWS V12.07,2013-08-31 12:02:00,
2013-08-31 08:31:00,71.3,71.0,26.78,SSW,192,1.0,9.0,99,0.00,,,-99.99,VWS V12.07,2013-08-31 12:31:00,
2013-08-31 09:01:00,72.3,71.1,26.78,SSW,207,1.0,5.0,96,0.00,,,-99.99,VWS V12.07,2013-08-31 13:01:00,
2013-08-31 09:31:00,73.7,72.2,26.78,SSW,192,3.0,7.0,95,0.00,,,-99.99,VWS V12.07,2013-08-31 13:31:00,
2013-08-31 10:01:00,74.7,72.6,26.78,WSW,244,1.0,7.0,93,0.00,,,-99.99,VWS V12.07,2013-08-31 14:01:00,
2013-08-31 10:31:00,74.5,72.7,26.79,West,272,1.0,7.0,94,0.00,,,-99.99,VWS V12.07,2013-08-31 14:31:00,
2013-08-31 11:01:00,75.1,73.6,26.79,West,268,4.0,5.0,95,0.00,,,-99.99,VWS V12.07,2013-08-31 15:01:00,
2013-08-31 11:31:00,76.6,73.4,26.77,SSW,201,3.0,5.0,90,0.00,,,-99.99,VWS V12.07,2013-08-31 15:31:00,
2013-08-31 12:01:00,76.8,72.6,26.76,SW,225,2.0,6.0,87,0.00,,,-99.99,VWS V12.07,2013-08-31 16:01:00,
2013-08-31 12:31:00,76.8,73.0,26.76,SW,232,2.0,5.0,88,0.00,,,-99.99,VWS V12.07,2013-08-31 16:31:00,
2013-08-31 13:01:00,75.0,72.5,26.76,South,170,4.0,5.0,92,0.00,,,-99.99,VWS V12.07,2013-08-31 17:01:00,
2013-08-31 13:31:00,74.9,72.4,26.76,SSW,209,1.0,5.0,92,0.00,,,-99.99,VWS V12.07,2013-08-31 17:31:00,
2013-08-31 14:01:00,73.5,72.0,26.76,SSE,157,2.0,3.0,95,0.00,,,-99.99,VWS V12.07,2013-08-31 18:01:00,
2013-08-31 14:31:00,70.3,70.3,26.76,NNW,340,2.0,4.0,100,0.01,,,-99.99,VWS V12.07,2013-08-31 18:31:00,
2013-08-31 15:01:00,69.9,69.9,26.75,NNW,333,4.0,5.0,100,0.05,,,-99.99,VWS V12.07,2013-08-31 19:01:00,
2013-08-31 15:31:00,69.1,69.1,26.76,West,263,2.0,3.0,100,0.06,,,-99.99,VWS V12.07,2013-08-31 19:31:00,
2013-08-31 16:01:00,69.6,69.6,26.73,NW,312,2.0,5.0,100,0.02,,,-99.99,VWS V12.07,2013-08-31 20:01:00,
2013-08-31 16:31:00,70.6,70.6,26.73,WSW,248,2.0,5.0,100,0.00,,,-99.99,VWS V12.07,2013-08-31 20:31:00,
2013-08-31 17:01:00,72.0,71.1,26.73,SSW,197,0.0,1.0,97,0.00,,,-99.99,VWS V12.07,2013-08-31 21:01:00,
2013-08-31 17:31:00,71.8,70.9,26.73,SSW,197,0.0,0.0,97,0.00,,,-99.99,VWS V12.07,2013-08-31 21:31:00,
2013-08-31 18:01:00,71.1,71.1,26.74,SSW,197,0.0,0.0,100,0.00,,,-99.99,VWS V12.07,2013-08-31 22:01:00,
2013-08-31 18:31:00,69.1,69.1,26.74,SSW,197,0.0,0.0,100,0.00,,,-99.99,VWS V12.07,2013-08-31 22:31:00,
2013-08-31 19:01:00,68.3,68.3,26.75,SSW,197,0.0,0.0,100,0.00,,,-99.99,VWS V12.07,2013-08-31 23:01:00,
2013-08-31 19:31:00,66.9,66.9,26.75,SSW,197,0.0,0.0,100,0.00,,,-99.99,VWS V12.07,2013-08-31 23:31:00,
2013-08-31 20:01:00,66.0,66.0,26.75,SSW,197,0.0,0.0,100,0.00,,,-99.99,VWS V12.07,2013-09-01 00:01:00,
2013-08-31 20:31:00,65.0,65.0,26.76,SSW,197,2.0,2.0,100,0.00,,,-99.99,VWS V12.07,2013-09-01 00:31:00,
2013-08-31 21:01:00,64.7,64.7,26.76,SSW,197,0.0,0.0,100,0.00,,,-99.99,VWS V12.07,2013-09-01 01:01:00,
2013-08-31 21:31:00,64.4,64.4,26.76,SSW,197,1.0,2.0,100,0.00,,,-99.99,VWS V12.07,2013-09-01 01:31:00,
2013-08-31 22:01:00,64.5,64.5,26.74,SSW,197,0.0,2.0,100,0.00,,,-99.99,VWS V12.07,2013-09-01 02:01:00,
2013-08-31 22:31:00,64.1,64.1,26.74,SSW,197,0.0,0.0,100,0.00,,,-99.99,VWS V12.07,2013-09-01 02:31:00,
2013-08-31 23:01:00,63.3,63.3,26.74,SSW,197,0.0,1.0,100,0.00,,,-99.99,VWS V12.07,2013-09-01 03:01:00,
2013-08-31 23:31:00,63.0,63.0,26.74,SSW,197,0.0,1.0,100,0.00,,,-99.99,VWS V12.07,2013-09-01 03:31:00,